Kingsbury, TX

11:58 PM CST on January 26, 2015 (GMT -0600)
New Braunfels Municipal | Change Station
CLOSE
Current Station
Airport
Location: New Braunfels,
Elevation: 643 ft
Nearby Weather Stations

Elev 643 ft 29.71 °N, 98.05 °W | Updated 7 minutes ago

Partly Cloudy
Partly Cloudy
52 °F
Feels Like 52 °F
N
8
Wind Variable Wind from West

Today
High -- | Low -- °F
--% Chance of Precip.
Yesterday
High -- | Low -- °F
Precip. -- in
7:24 AM 6:03 PM
Waxing Crescent, 50% visible
Pressure 30.17 in
Visibility 10.0 miles
Clouds Clear
Dew Point 39 °F
Humidity 61%
Rainfall 0.00 in
Snow Depth Not available.
UV 0 out of 12
Pollen 8.00 out of 12
Air Quality Not available.
Flu Activity Not available.
METAR KBAZ 270551Z AUTO 28007KT 10SM CLR 11/04 A3018 RMK AO2 SLP217 T01110039 10172 20100 402330033 50002

More Conditions Fewer Conditions

Pressure 30.17 in
Visibility 10.0 miles
Clouds Clear
Dew Point 39 °F
Humidity 61%
Rainfall 0.00 in
Snow Depth Not available.
UV 0 out of 12
Pollen 8.00 out of 12
Air Quality Not available.
Flu Activity Not available.
METAR KBAZ 270551Z AUTO 28007KT 10SM CLR 11/04 A3018 RMK AO2 SLP217 T01110039 10172 20100 402330033 50002

More Conditions Fewer Conditions

10-Day Weather Forecast

Almanac

Astronomy

Jan. 26, 2015 Rise Set
Actual Time
Civil Twilight
Nautical Twilight
Astronomical Twilight
Moon
Length of Visible Light
Length of Day
Tomorrow will be .
, % of the Moon is Illuminated

Today's Extremes

State Highs State Lows

Community

WunderPhotos

Upload Photos

1,790,536 photos uploaded!

WunderBlogs® & News

Nearby

Air Quality

  Air Quality AQ Index Pollutant
Not available.

Snow Depth

Station Depth Elevation

Earthquake Activity

City Distance Mag. Time & Date
Minimum magnitude displayed is 2.5.

Coastal Water Temperatures

Place Temperature

Nearby Weather Stations